Terminal Aerodrome Forecast
Issued by NWS Brownsville, TX

Current Version | Previous Version | Text Only | Print | Product List | Glossary Off
Versions: 1 2 3 4 5 6 7 8 9 10 11 12 13 14 15 16 17 18 19

000
FTUS44 KBRO 191133
TAFHRL
TAF
KHRL 191133Z 1912/2012 16015G22KT P6SM BKN015
      TEMPO 1912/1915 6SM BR SCT015 BKN025
     FM191600 16017G24KT P6SM SCT020 BKN250
      TEMPO 1916/1918 BKN020
     FM191800 16021G28KT P6SM SCT040 BKN250
     FM200300 14013KT P6SM BKN015
     FM200600 VRB05KT 3SM TSRA OVC025CB
      TEMPO 2006/2009 VRB20G30KT 1SM +TSRA SQ OVC015CB=

USA.gov is the U.S. government's official web portal to all federal, state and local government web resources and services.